Time;durP1;ratioP1;P1;durP2;ratioP2;P2;SDS_P1;SDS_P2;PMS_P1;PMS_P2;Temp;Humidity;BMP_temperature;BMP_pressure;BME280_temperature;BME280_humidity;BME280_pressure;Samples;Min_cycle;Max_cycle;Signal;HPM_P1;HPM_P2
2023/07/12 00:00:45;;;;;;;10.20;7.20;;;;;;;19.34;71.71;96579.81;5137167;27;20082;-66
2023/07/12 00:03:13;;;;;;;7.82;6.82;;;;;;;19.34;71.42;96577.16;5137237;27;20122;-66
2023/07/12 00:05:41;;;;;;;7.15;6.43;;;;;;;19.32;71.61;96571.09;5137091;27;20046;-66
2023/07/12 00:08:16;;;;;;;9.98;7.00;;;;;;;19.32;71.55;96561.34;5136984;27;20527;-66
2023/07/12 00:10:44;;;;;;;12.57;7.38;;;;;;;19.36;71.79;96566.44;5137107;27;20043;-66
2023/07/12 00:13:13;;;;;;;7.95;6.60;;;;;;;19.28;71.36;96564.34;5137056;27;20078;-66
2023/07/12 00:15:41;;;;;;;10.70;7.20;;;;;;;19.24;71.76;96571.69;5137137;27;20437;-65
2023/07/12 00:18:15;;;;;;;12.52;7.72;;;;;;;19.24;71.89;96565.53;5136875;27;20043;-66
2023/07/12 00:20:43;;;;;;;14.38;7.00;;;;;;;19.21;72.09;96565.75;5136900;27;20139;-66
2023/07/12 00:23:12;;;;;;;10.50;7.32;;;;;;;19.24;72.12;96565.53;5137022;27;20485;-66
2023/07/12 00:25:39;;;;;;;8.80;6.45;;;;;;;19.25;71.92;96562.78;5136916;27;20469;-66
2023/07/12 00:28:20;;;;;;;9.93;7.43;;;;;;;19.19;71.30;96569.38;5136739;27;20096;-66
2023/07/12 00:30:47;;;;;;;7.93;6.70;;;;;;;19.18;71.14;96562.34;5136797;27;20518;-65
2023/07/12 00:33:14;;;;;;;9.02;7.40;;;;;;;19.18;71.29;96565.00;5136789;27;20055;-66
2023/07/12 00:35:43;;;;;;;7.40;6.68;;;;;;;19.17;71.87;96559.81;5136699;27;20066;-66
2023/07/12 00:38:17;;;;;;;14.90;6.97;;;;;;;19.15;71.46;96557.28;5136461;27;20074;-66
2023/07/12 00:41:10;;;;;;;7.80;6.72;;;;;;;19.15;71.25;96554.63;5136493;27;20463;-66
2023/07/12 00:43:41;;;;;;;9.35;6.60;;;;;;;19.10;71.05;96550.63;5136612;27;20075;-66
2023/07/12 00:46:17;;;;;;;13.13;6.95;;;;;;;19.08;70.75;96560.50;5136391;27;20475;-66
2023/07/12 00:48:47;;;;;;;8.45;7.00;;;;;;;19.05;70.81;96553.56;5136462;27;20070;-66
2023/07/12 00:51:32;;;;;;;10.15;7.00;;;;;;;19.06;71.32;96548.16;5136285;27;20049;-65
2023/07/12 00:53:59;;;;;;;9.48;7.20;;;;;;;19.04;71.71;96549.22;5136294;27;20047;-66
2023/07/12 00:56:28;;;;;;;10.10;6.65;;;;;;;19.08;71.84;96552.56;5136047;27;20165;-66
2023/07/12 00:59:03;;;;;;;11.48;7.35;;;;;;;19.10;72.03;96555.91;5136160;27;20047;-65
2023/07/12 01:01:30;;;;;;;7.88;7.07;;;;;;;19.09;72.03;96551.59;5136149;27;20051;-66
2023/07/12 01:03:58;;;;;;;10.02;7.10;;;;;;;19.05;72.22;96553.56;5136154;27;20043;-66
2023/07/12 01:06:25;;;;;;;8.48;7.10;;;;;;;19.03;72.14;96553.69;5135919;27;20096;-65
2023/07/12 01:08:52;;;;;;;7.78;6.97;;;;;;;18.99;72.31;96546.09;5135823;27;20397;-66
2023/07/12 01:11:21;;;;;;;13.98;7.28;;;;;;;18.99;72.23;96543.44;5135908;27;20051;-65
2023/07/12 01:13:51;;;;;;;11.68;7.70;;;;;;;18.94;72.46;96538.47;5135831;27;20485;-66
2023/07/12 01:16:23;;;;;;;7.75;6.97;;;;;;;18.92;72.78;96538.56;5135889;27;20047;-65
2023/07/12 01:18:50;;;;;;;8.27;7.18;;;;;;;18.92;72.19;96535.06;5135829;27;20085;-65
2023/07/12 01:21:21;;;;;;;11.77;7.53;;;;;;;18.88;72.48;96533.59;5135747;27;20051;-65
2023/07/12 01:23:49;;;;;;;10.45;7.22;;;;;;;18.89;72.72;96527.34;5135809;27;20071;-66
2023/07/12 01:26:20;;;;;;;8.75;7.55;;;;;;;18.84;72.16;96529.50;5135938;27;20070;-66
2023/07/12 01:28:49;;;;;;;10.63;7.88;;;;;;;18.84;72.04;96532.13;5135642;27;20043;-66
2023/07/12 01:31:17;;;;;;;11.45;7.63;;;;;;;18.87;71.92;96532.75;5135708;27;20126;-65
2023/07/12 01:33:45;;;;;;;13.57;8.13;;;;;;;18.88;72.19;96529.16;5135428;27;20121;-66
2023/07/12 01:36:12;;;;;;;12.27;7.55;;;;;;;18.89;72.54;96530.84;5135426;27;20039;-66
2023/07/12 01:38:40;;;;;;;9.68;7.82;;;;;;;18.89;72.26;96533.50;5135353;27;20073;-66
2023/07/12 01:41:07;;;;;;;9.13;7.50;;;;;;;18.85;72.54;96537.31;5135295;27;20047;-66
2023/07/12 01:43:35;;;;;;;9.70;7.15;;;;;;;18.85;72.55;96542.63;5135298;27;20047;-66
2023/07/12 01:46:02;;;;;;;9.57;7.65;;;;;;;18.74;73.09;96539.88;5135284;27;20112;-66
2023/07/12 01:48:29;;;;;;;11.88;7.95;;;;;;;18.71;73.24;96537.44;5135235;27;20130;-66
2023/07/12 01:50:56;;;;;;;8.30;7.13;;;;;;;18.66;73.25;96533.31;5135043;27;20051;-66
2023/07/12 01:53:23;;;;;;;8.85;7.78;;;;;;;18.60;73.32;96538.22;5135254;27;20051;-65
2023/07/12 01:55:51;;;;;;;8.80;7.50;;;;;;;18.62;73.44;96544.25;5135189;27;20096;-66
2023/07/12 01:58:18;;;;;;;9.02;8.05;;;;;;;18.60;73.92;96538.22;5135074;27;20105;-66
2023/07/12 02:00:45;;;;;;;9.48;7.70;;;;;;;18.57;73.62;96547.22;5134821;27;20043;-66
2023/07/12 02:03:12;;;;;;;10.93;6.97;;;;;;;18.62;73.91;96557.50;5134869;27;20047;-65
2023/07/12 02:05:39;;;;;;;7.80;6.95;;;;;;;18.60;73.76;96549.66;5134916;27;20092;-66
2023/07/12 02:08:06;;;;;;;8.68;7.38;;;;;;;18.63;73.78;96553.91;5134125;27;20075;-65
2023/07/12 02:10:33;;;;;;;8.98;7.05;;;;;;;18.60;73.62;96559.41;5134797;27;20449;-66
2023/07/12 02:13:02;;;;;;;12.02;7.82;;;;;;;18.53;73.81;96553.69;5134744;27;20500;-66
2023/07/12 02:15:29;;;;;;;10.15;7.50;;;;;;;18.52;73.86;96550.22;5134837;27;20051;-65
2023/07/12 02:17:57;;;;;;;8.63;7.25;;;;;;;18.55;73.66;96554.44;5134584;27;20048;-65
2023/07/12 02:20:24;;;;;;;10.20;7.93;;;;;;;18.44;73.88;96552.53;5134505;27;20054;-66
2023/07/12 02:22:51;;;;;;;9.93;7.53;;;;;;;18.35;74.48;96546.09;5134763;27;20057;-65
2023/07/12 02:25:20;;;;;;;9.60;7.55;;;;;;;18.36;74.25;96545.13;5134631;27;20043;-66
2023/07/12 02:27:48;;;;;;;11.48;7.78;;;;;;;18.43;74.11;96546.38;5134577;27;20051;-66
2023/07/12 02:30:19;;;;;;;9.02;7.82;;;;;;;18.49;74.31;96547.78;5134543;27;20047;-66
2023/07/12 02:32:47;;;;;;;10.85;7.93;;;;;;;18.43;73.98;96548.22;5134397;27;20055;-66
2023/07/12 02:35:14;;;;;;;12.25;8.32;;;;;;;18.43;73.76;96545.56;5134348;27;20538;-66
2023/07/12 02:37:42;;;;;;;7.55;6.85;;;;;;;18.45;73.75;96543.63;5134410;27;20086;-66
2023/07/12 02:40:10;;;;;;;11.52;8.00;;;;;;;18.50;74.43;96546.81;5134297;27;20064;-66
2023/07/12 02:42:37;;;;;;;8.88;7.97;;;;;;;18.50;74.63;96553.91;5134348;27;20054;-65
2023/07/12 02:45:06;;;;;;;9.68;7.43;;;;;;;18.51;74.46;96555.63;5134289;27;20043;-66
2023/07/12 02:47:35;;;;;;;11.73;7.40;;;;;;;18.59;74.53;96557.69;5134321;27;20048;-66
2023/07/12 02:50:02;;;;;;;10.05;8.25;;;;;;;18.56;74.80;96558.78;5134212;27;20147;-66
2023/07/12 02:52:31;;;;;;;8.35;7.28;;;;;;;18.59;74.67;96560.34;5134228;27;20051;-66
2023/07/12 02:54:58;;;;;;;9.30;6.93;;;;;;;18.63;74.68;96567.16;5134289;27;20043;-65
2023/07/12 02:57:25;;;;;;;9.98;8.45;;;;;;;18.62;75.26;96563.66;5134196;27;20096;-66
2023/07/12 02:59:52;;;;;;;10.02;8.13;;;;;;;18.60;75.12;96570.00;5133993;27;20484;-66
2023/07/12 03:02:19;;;;;;;9.20;7.60;;;;;;;18.60;75.14;96578.78;5134059;28;20047;-66
2023/07/12 03:04:48;;;;;;;17.42;7.88;;;;;;;18.63;75.36;96580.41;5134061;28;20514;-66
2023/07/12 03:07:15;;;;;;;10.30;7.32;;;;;;;18.65;75.42;96581.13;5133690;28;20043;-65
2023/07/12 03:09:42;;;;;;;13.50;7.80;;;;;;;18.67;75.57;96587.16;5134074;27;20248;-66
2023/07/12 03:12:09;;;;;;;11.27;6.95;;;;;;;18.67;75.03;96590.63;5133849;28;20055;-66
2023/07/12 03:14:37;;;;;;;10.10;7.30;;;;;;;18.62;75.43;96592.78;5133944;27;20062;-66
2023/07/12 03:17:06;;;;;;;11.07;7.60;;;;;;;18.58;75.63;96591.31;5133895;28;20043;-66
2023/07/12 03:19:35;;;;;;;8.27;7.40;;;;;;;18.59;75.98;96593.00;5136243;27;20047;-66
2023/07/12 03:22:04;;;;;;;9.20;7.60;;;;;;;18.51;76.36;96595.34;5137956;27;20053;-66
2023/07/12 03:24:31;;;;;;;9.48;7.35;;;;;;;18.43;76.97;96602.00;5138169;27;20104;-66
2023/07/12 03:26:58;;;;;;;10.32;8.00;;;;;;;18.38;77.68;96601.47;5138038;27;20100;-66
2023/07/12 03:29:25;;;;;;;12.80;8.77;;;;;;;18.44;78.18;96594.91;5137845;27;20043;-66
2023/07/12 03:31:52;;;;;;;8.82;7.72;;;;;;;18.60;77.81;96599.16;5137963;27;20752;-66
2023/07/12 03:34:19;;;;;;;10.82;7.78;;;;;;;18.70;77.32;96602.84;5137766;27;20404;-66
2023/07/12 03:36:46;;;;;;;10.70;7.70;;;;;;;18.84;77.04;96599.19;5137891;27;20455;-66
2023/07/12 03:39:15;;;;;;;9.68;7.18;;;;;;;19.03;76.59;96597.91;5137832;27;20062;-66
2023/07/12 03:41:42;;;;;;;9.85;7.75;;;;;;;19.21;76.23;96602.88;5138013;27;20051;-66
2023/07/12 03:44:09;;;;;;;8.95;7.50;;;;;;;19.47;75.95;96610.75;5137606;27;20051;-66
2023/07/12 03:46:36;;;;;;;11.20;7.20;;;;;;;19.77;76.09;96614.72;5137783;27;20043;-67
2023/07/12 03:49:03;;;;;;;11.50;7.13;;;;;;;20.06;74.71;96623.22;5137591;27;20122;-67
2023/07/12 03:51:30;;;;;;;8.75;6.78;;;;;;;20.29;73.48;96631.22;5137464;27;20134;-66
2023/07/12 03:53:58;;;;;;;11.38;6.97;;;;;;;20.43;71.81;96631.97;5137369;27;20126;-66
2023/07/12 03:56:27;;;;;;;10.30;6.88;;;;;;;20.47;70.79;96635.25;5137543;27;20080;-67
2023/07/12 03:58:54;;;;;;;13.05;7.88;;;;;;;20.62;70.05;96634.03;5137365;27;20097;-66
2023/07/12 04:01:22;;;;;;;10.18;6.80;;;;;;;20.89;68.44;96635.50;5137162;27;20393;-66
2023/07/12 04:03:50;;;;;;;12.15;7.35;;;;;;;21.27;68.09;96636.13;5137235;27;20051;-66
2023/07/12 04:06:17;;;;;;;7.95;7.15;;;;;;;21.65;66.12;96644.66;5137150;27;20047;-67
2023/07/12 04:08:45;;;;;;;9.32;6.78;;;;;;;22.10;66.14;96640.16;5136950;27;20412;-67
2023/07/12 04:11:22;;;;;;;8.63;6.70;;;;;;;22.52;64.53;96649.97;5137140;27;20070;-66
2023/07/12 04:13:51;;;;;;;9.60;6.68;;;;;;;22.94;62.90;96642.91;5137014;27;20043;-67
2023/07/12 04:16:19;;;;;;;9.80;6.95;;;;;;;23.37;61.56;96642.78;5137002;27;20043;-66
2023/07/12 04:18:45;;;;;;;10.20;6.55;;;;;;;23.78;59.90;96654.25;5136845;27;20488;-67
2023/07/12 04:21:13;;;;;;;9.27;6.72;;;;;;;24.13;59.08;96654.72;5136945;27;20104;-67
2023/07/12 04:23:40;;;;;;;8.60;6.32;;;;;;;24.50;58.91;96650.44;5136917;27;20442;-66
2023/07/12 04:26:07;;;;;;;10.80;6.85;;;;;;;24.86;57.44;96641.75;5136916;27;20039;-66
2023/07/12 04:28:38;;;;;;;7.78;6.45;;;;;;;25.17;56.03;96644.22;5136779;27;20047;-66
2023/07/12 04:31:11;;;;;;;7.72;6.38;;;;;;;25.45;56.11;96644.22;5136305;27;20054;-66
2023/07/12 04:33:38;;;;;;;10.23;6.78;;;;;;;25.76;56.35;96659.13;5136791;27;20633;-66
2023/07/12 04:36:06;;;;;;;9.05;6.60;;;;;;;26.08;55.72;96652.41;5136744;27;20075;-66
2023/07/12 04:38:34;;;;;;;8.13;6.15;;;;;;;26.39;54.53;96650.34;5136708;27;20039;-66
2023/07/12 04:41:01;;;;;;;7.05;6.10;;;;;;;26.62;54.15;96650.66;5136554;27;20051;-66
2023/07/12 04:43:29;;;;;;;8.38;5.72;;;;;;;26.96;53.68;96660.59;5136406;27;20047;-67
2023/07/12 04:45:56;;;;;;;6.68;6.05;;;;;;;27.32;53.73;96656.94;5136531;27;20047;-66
2023/07/12 04:48:25;;;;;;;6.78;5.80;;;;;;;27.64;53.12;96659.91;5136530;27;20435;-66
2023/07/12 04:50:53;;;;;;;8.57;5.85;;;;;;;27.91;53.05;96662.50;5136324;27;20043;-67
2023/07/12 04:53:20;;;;;;;9.23;5.97;;;;;;;28.28;52.16;96666.56;5136330;27;20092;-66
2023/07/12 04:55:50;;;;;;;6.15;5.55;;;;;;;28.53;50.81;96663.88;5136452;27;20079;-67
2023/07/12 04:58:18;;;;;;;8.10;6.07;;;;;;;28.70;49.91;96664.72;5136256;27;20087;-67
2023/07/12 05:00:45;;;;;;;8.93;6.40;;;;;;;28.94;49.97;96667.53;5136382;27;20138;-67
2023/07/12 05:03:15;;;;;;;8.18;6.25;;;;;;;29.18;47.51;96663.97;5136135;27;20511;-67
2023/07/12 05:05:44;;;;;;;8.77;6.03;;;;;;;29.34;48.97;96667.59;5136028;27;20135;-67
2023/07/12 05:08:12;;;;;;;7.28;5.95;;;;;;;29.52;49.88;96660.09;5136177;27;20047;-67
2023/07/12 05:10:39;;;;;;;7.72;5.45;;;;;;;29.75;48.61;96664.75;5136048;27;20051;-67
2023/07/12 05:13:06;;;;;;;6.35;5.07;;;;;;;30.06;49.09;96663.00;5135852;27;20050;-67
2023/07/12 05:15:34;;;;;;;8.40;6.10;;;;;;;30.38;49.80;96661.13;5135827;27;20100;-67
2023/07/12 05:18:01;;;;;;;6.25;5.55;;;;;;;30.62;48.88;96659.22;5135845;27;20503;-67
2023/07/12 05:20:28;;;;;;;9.32;5.40;;;;;;;30.84;48.05;96653.97;5135725;27;20174;-67
2023/07/12 05:22:57;;;;;;;6.00;5.40;;;;;;;31.10;48.40;96663.47;5135665;27;20079;-67
2023/07/12 05:25:24;;;;;;;8.48;5.85;;;;;;;31.36;49.08;96651.38;5135793;27;20104;-67
2023/07/12 05:27:51;;;;;;;7.80;5.28;;;;;;;31.57;47.88;96655.16;5135566;27;20052;-67
2023/07/12 05:30:18;;;;;;;8.63;5.75;;;;;;;31.80;47.73;96656.03;5135525;27;20074;-67
2023/07/12 05:32:45;;;;;;;10.02;5.55;;;;;;;31.98;45.81;96661.03;5135518;27;20507;-67
2023/07/12 05:35:12;;;;;;;8.93;5.45;;;;;;;32.14;45.20;96659.94;5135460;27;20051;-67
2023/07/12 05:37:39;;;;;;;8.20;5.75;;;;;;;32.40;47.29;96659.38;5135510;27;20104;-67
2023/07/12 05:40:11;;;;;;;10.05;5.63;;;;;;;32.63;47.85;96661.00;5135203;27;20505;-67
2023/07/12 05:42:40;;;;;;;7.22;5.20;;;;;;;32.86;46.38;96673.47;5134478;27;20130;-67
2023/07/12 05:45:09;;;;;;;6.90;5.60;;;;;;;33.11;45.23;96666.78;5135338;27;20047;-67
2023/07/12 05:47:36;;;;;;;7.47;6.45;;;;;;;33.33;45.00;96672.94;5135343;27;20062;-67
2023/07/12 05:50:04;;;;;;;8.25;5.75;;;;;;;33.54;43.55;96665.75;5135197;27;20047;-68
2023/07/12 05:52:31;;;;;;;7.03;6.32;;;;;;;33.69;42.86;96675.63;5135055;27;20053;-67
2023/07/12 05:54:58;;;;;;;7.25;5.97;;;;;;;33.84;44.37;96664.63;5135131;27;20472;-68
2023/07/12 05:57:27;;;;;;;9.60;6.00;;;;;;;34.03;43.62;96661.13;5134990;27;20043;-68
2023/07/12 05:59:54;;;;;;;9.93;7.15;;;;;;;34.18;41.88;96662.84;5134965;27;20076;-67
2023/07/12 06:02:21;;;;;;;11.05;6.28;;;;;;;34.32;42.63;96662.84;5135013;27;20100;-68
2023/07/12 06:04:48;;;;;;;11.32;5.95;;;;;;;34.41;39.71;96662.44;5134821;27;20047;-67
2023/07/12 06:07:16;;;;;;;7.20;6.30;;;;;;;34.42;40.19;96655.13;5134558;27;20047;-68
2023/07/12 06:09:43;;;;;;;8.50;6.40;;;;;;;34.51;41.46;96651.16;5134994;27;20100;-68
2023/07/12 06:12:11;;;;;;;11.88;6.25;;;;;;;34.68;39.35;96653.50;5134894;27;20054;-68
2023/07/12 06:14:39;;;;;;;9.63;6.78;;;;;;;34.83;41.86;96658.69;5134745;27;20047;-68
2023/07/12 06:17:07;;;;;;;9.75;6.78;;;;;;;35.00;39.39;96656.34;5134847;27;20085;-68
2023/07/12 06:19:34;;;;;;;28.25;8.60;;;;;;;35.00;39.27;96669.94;5134625;27;20050;-67
2023/07/12 06:22:02;;;;;;;10.50;6.53;;;;;;;35.20;39.32;96663.66;5134504;27;20047;-68
2023/07/12 06:24:30;;;;;;;6.45;5.85;;;;;;;35.37;39.23;96668.63;5134520;27;20054;-67
2023/07/12 06:26:57;;;;;;;10.52;6.07;;;;;;;35.55;38.57;96670.66;5134406;27;20092;-68
2023/07/12 06:29:25;;;;;;;6.43;5.80;;;;;;;35.68;37.41;96675.19;5134468;27;20051;-68
2023/07/12 06:31:54;;;;;;;12.88;6.57;;;;;;;35.94;38.03;96675.31;5134465;27;20141;-68
2023/07/12 06:34:22;;;;;;;10.40;6.40;;;;;;;36.10;36.48;96682.09;5134332;27;20043;-68
2023/07/12 06:36:49;;;;;;;11.02;6.15;;;;;;;36.29;36.26;96677.59;5134346;27;20043;-68
2023/07/12 06:39:17;;;;;;;7.75;6.07;;;;;;;36.46;36.65;96677.91;5134484;27;20117;-68
2023/07/12 06:41:44;;;;;;;12.35;6.57;;;;;;;36.62;36.56;96681.13;5134281;27;20043;-68
2023/07/12 06:44:11;;;;;;;7.05;5.63;;;;;;;36.69;37.68;96679.19;5134238;27;20500;-68
2023/07/12 06:46:38;;;;;;;8.73;6.05;;;;;;;36.83;37.34;96681.84;5134244;27;20051;-68
2023/07/12 06:49:07;;;;;;;8.10;5.28;;;;;;;36.91;35.31;96685.09;5134191;27;20055;-68
2023/07/12 06:51:34;;;;;;;13.23;5.93;;;;;;;36.95;34.07;96682.75;5134179;27;20043;-68
2023/07/12 06:54:01;;;;;;;7.82;6.07;;;;;;;36.86;34.55;96687.66;5133994;27;20043;-68
2023/07/12 06:56:28;;;;;;;7.20;5.75;;;;;;;36.99;35.05;96694.03;5134144;27;20480;-68
2023/07/12 06:58:55;;;;;;;13.73;6.82;;;;;;;37.02;33.54;96697.13;5134072;28;20507;-68
2023/07/12 07:01:24;;;;;;;8.73;6.32;;;;;;;37.12;34.15;96685.72;5134002;28;20047;-68
2023/07/12 07:03:51;;;;;;;13.00;5.88;;;;;;;37.20;33.66;96687.34;5134078;28;20043;-68
2023/07/12 07:06:21;;;;;;;9.02;6.43;;;;;;;37.29;33.69;96685.97;5133867;28;20047;-68
2023/07/12 07:08:49;;;;;;;11.43;6.20;;;;;;;37.35;33.16;96691.59;5133913;27;20047;-68
2023/07/12 07:11:16;;;;;;;10.43;5.97;;;;;;;37.47;31.98;96692.50;5134041;27;20054;-68
2023/07/12 07:13:43;;;;;;;9.18;5.78;;;;;;;37.58;31.84;96696.34;5134038;27;20382;-68
2023/07/12 07:16:10;;;;;;;13.50;6.07;;;;;;;37.68;31.69;96690.41;5133991;28;20043;-68
2023/07/12 07:18:38;;;;;;;8.02;6.10;;;;;;;37.71;31.04;96687.19;5133906;28;20047;-67
2023/07/12 07:21:05;;;;;;;10.20;5.93;;;;;;;37.77;30.54;96688.19;5133770;28;20489;-68
2023/07/12 07:23:34;;;;;;;8.18;6.18;;;;;;;37.73;30.05;96681.50;5133865;28;20055;-68
2023/07/12 07:26:08;;;;;;;10.57;6.13;;;;;;;37.69;29.91;96689.34;5133765;28;20051;-68
2023/07/12 07:28:37;;;;;;;9.48;6.50;;;;;;;37.34;28.65;96685.31;5133773;28;20054;-68
2023/07/12 07:31:04;;;;;;;8.40;6.05;;;;;;;37.12;30.08;96687.63;5133982;28;20050;-68
2023/07/12 07:33:31;;;;;;;10.15;6.22;;;;;;;37.14;35.06;96693.69;5133767;28;20385;-68
2023/07/12 07:35:58;;;;;;;9.73;6.70;;;;;;;37.26;31.27;96697.34;5133949;27;20059;-68
2023/07/12 07:38:28;;;;;;;8.50;5.88;;;;;;;36.74;29.89;96690.28;5133782;27;20043;-68
2023/07/12 07:40:57;;;;;;;10.82;6.25;;;;;;;36.54;30.66;96693.16;5133694;28;20081;-68
2023/07/12 07:43:24;;;;;;;11.38;6.80;;;;;;;36.47;32.54;96687.75;5133872;27;20099;-68
2023/07/12 07:45:51;;;;;;;11.38;6.55;;;;;;;36.43;33.12;96683.81;5133695;28;20126;-68
2023/07/12 07:48:18;;;;;;;7.63;5.90;;;;;;;36.45;31.92;96680.84;5133759;27;20086;-68
2023/07/12 07:50:45;;;;;;;10.77;6.40;;;;;;;36.66;32.61;96671.47;5133620;27;20461;-68
2023/07/12 07:53:12;;;;;;;11.15;6.03;;;;;;;36.83;30.54;96681.84;5133586;28;20051;-68
2023/07/12 07:55:43;;;;;;;9.02;6.10;;;;;;;37.04;31.03;96686.84;5133534;27;20092;-68
2023/07/12 07:58:11;;;;;;;9.75;6.43;;;;;;;37.25;29.63;96686.66;5133497;28;20046;-68
2023/07/12 08:00:39;;;;;;;9.60;6.13;;;;;;;37.36;30.66;96680.47;5133432;28;20484;-68
2023/07/12 08:03:07;;;;;;;7.85;6.10;;;;;;;37.56;32.40;96679.41;5133642;28;20112;-68
2023/07/12 08:05:34;;;;;;;8.23;6.47;;;;;;;37.73;31.67;96690.53;5135754;27;20047;-68
2023/07/12 08:08:01;;;;;;;10.77;6.07;;;;;;;37.83;30.82;96689.16;5137343;27;20047;-68
2023/07/12 08:10:29;;;;;;;7.07;6.22;;;;;;;37.97;30.29;96693.38;5137247;27;20047;-68
2023/07/12 08:12:58;;;;;;;9.02;6.18;;;;;;;38.06;31.83;96677.50;5137299;27;20043;-68
2023/07/12 08:15:27;;;;;;;9.73;6.00;;;;;;;38.07;29.62;96684.59;5137196;27;20115;-68
2023/07/12 08:17:55;;;;;;;8.23;6.18;;;;;;;37.67;34.34;96686.84;5137059;27;20116;-68
2023/07/12 08:20:23;;;;;;;7.43;6.10;;;;;;;37.49;28.81;96690.38;5137063;27;20043;-68
2023/07/12 08:22:50;;;;;;;16.55;6.75;;;;;;;37.41;29.74;96686.06;5136796;27;20484;-69
2023/07/12 08:25:17;;;;;;;8.95;6.20;;;;;;;37.69;29.80;96691.22;5136867;27;20544;-68
2023/07/12 08:27:45;;;;;;;9.75;6.63;;;;;;;37.80;29.42;96696.72;5136885;27;20489;-68
2023/07/12 08:30:13;;;;;;;7.65;6.28;;;;;;;37.84;26.66;96699.84;5136840;27;20514;-68
2023/07/12 08:32:42;;;;;;;8.63;6.82;;;;;;;37.53;28.12;96701.69;5136626;27;20100;-68
2023/07/12 08:35:11;;;;;;;7.47;6.30;;;;;;;37.79;27.29;96711.44;5136745;27;20484;-68
2023/07/12 08:37:39;;;;;;;10.55;7.13;;;;;;;37.54;26.85;96701.44;5136773;27;20130;-68
2023/07/12 08:40:07;;;;;;;12.68;5.82;;;;;;;37.38;28.82;96705.59;5136580;27;20101;-68
2023/07/12 08:42:39;;;;;;;10.00;6.50;;;;;;;37.42;27.54;96695.91;5136503;27;20104;-68
2023/07/12 08:45:20;;;;;;;13.20;6.80;;;;;;;37.63;28.50;96699.25;5136494;27;20047;-68
2023/07/12 08:47:53;;;;;;;7.22;6.15;;;;;;;37.87;29.15;96695.81;5136551;27;20054;-68
2023/07/12 08:50:21;;;;;;;10.02;6.80;;;;;;;38.07;29.16;96700.97;5136486;27;20454;-68
2023/07/12 08:52:48;;;;;;;13.20;7.15;;;;;;;37.87;26.88;96695.81;5136464;27;20048;-68
2023/07/12 08:55:18;;;;;;;10.18;6.38;;;;;;;37.28;28.32;96691.66;5136254;27;20092;-68
2023/07/12 08:57:48;;;;;;;8.02;6.80;;;;;;;36.53;29.51;96683.28;5136223;27;20050;-68
2023/07/12 09:00:21;;;;;;;11.50;7.25;;;;;;;35.71;28.73;96677.50;5136216;27;20039;-68
2023/07/12 09:02:50;;;;;;;15.05;7.70;;;;;;;35.47;28.90;96677.16;5136097;27;20454;-68
2023/07/12 09:05:21;;;;;;;7.97;6.45;;;;;;;35.16;31.61;96676.78;5136134;27;20523;-68
2023/07/12 09:07:55;;;;;;;11.35;6.85;;;;;;;35.10;31.35;96682.25;5136088;27;20055;-68
2023/07/12 09:10:33;;;;;;;10.55;7.22;;;;;;;35.13;28.75;96688.13;5135914;27;20047;-68
2023/07/12 09:13:01;;;;;;;10.75;6.68;;;;;;;35.05;29.87;96688.31;5135894;27;20481;-68
2023/07/12 09:15:37;;;;;;;18.75;7.32;;;;;;;35.28;31.98;96682.44;5135980;27;20505;-68
2023/07/12 09:18:09;;;;;;;11.02;6.60;;;;;;;35.60;34.18;96694.47;5135885;27;20078;-68
2023/07/12 09:20:41;;;;;;;9.23;6.22;;;;;;;35.79;32.27;96704.44;5135801;27;20086;-68
2023/07/12 09:23:13;;;;;;;12.13;6.47;;;;;;;36.08;33.24;96697.84;5135646;27;20119;-68
2023/07/12 09:25:39;;;;;;;7.82;6.53;;;;;;;36.21;31.12;96703.22;5135698;27;20477;-68
2023/07/12 09:28:07;;;;;;;10.45;7.20;;;;;;;36.29;30.45;96707.53;5135729;27;20035;-68
2023/07/12 09:30:35;;;;;;;10.20;6.72;;;;;;;36.28;32.53;96706.72;5135613;27;20453;-68
2023/07/12 09:33:05;;;;;;;11.68;6.88;;;;;;;36.26;32.67;96697.09;5135411;27;20100;-68
2023/07/12 09:35:41;;;;;;;11.80;7.50;;;;;;;36.37;29.81;96701.84;5135524;27;20511;-68
2023/07/12 09:38:12;;;;;;;8.90;7.75;;;;;;;36.40;28.18;96693.25;5135547;27;20163;-68
2023/07/12 09:40:41;;;;;;;12.05;7.95;;;;;;;36.54;27.65;96693.16;5135334;27;20047;-68
2023/07/12 09:43:17;;;;;;;21.20;8.40;;;;;;;36.27;29.13;96696.06;5135689;27;20047;-68
2023/07/12 09:45:51;;;;;;;13.30;7.82;;;;;;;36.31;29.66;96702.72;5135465;27;20130;-68
2023/07/12 09:48:28;;;;;;;9.90;7.80;;;;;;;36.51;28.24;96701.75;5135252;27;20057;-68
2023/07/12 09:51:12;;;;;;;14.80;8.40;;;;;;;36.62;26.76;96692.00;5135328;27;20240;-68
2023/07/12 09:53:43;;;;;;;13.05;8.38;;;;;;;36.33;26.26;96680.72;5135331;27;20043;-68
2023/07/12 09:56:24;;;;;;;10.00;8.13;;;;;;;36.36;30.31;96688.47;5135109;27;20079;-68
2023/07/12 09:58:58;;;;;;;10.70;8.55;;;;;;;36.45;28.27;96697.19;5134952;27;20039;-68
2023/07/12 10:01:37;;;;;;;10.25;7.95;;;;;;;36.62;29.77;96686.56;5134806;27;20039;-68
2023/07/12 10:04:20;;;;;;;14.35;8.05;;;;;;;36.39;29.33;96680.66;5135088;27;20039;-68
2023/07/12 10:06:50;;;;;;;13.30;7.68;;;;;;;36.31;28.77;96689.13;5134916;27;20470;-68
2023/07/12 10:09:23;;;;;;;12.00;8.32;;;;;;;36.47;29.52;96687.75;5134874;27;20099;-68
2023/07/12 10:11:59;;;;;;;13.85;8.98;;;;;;;36.51;29.55;96672.63;5134767;27;20096;-68
2023/07/12 10:14:32;;;;;;;10.25;8.93;;;;;;;36.67;29.68;96673.97;5134876;27;20043;-68
2023/07/12 10:17:00;;;;;;;12.57;8.80;;;;;;;36.58;28.59;96669.00;5134690;27;20078;-68
2023/07/12 10:19:32;;;;;;;11.43;8.73;;;;;;;36.52;28.47;96663.41;5134773;27;20066;-68
2023/07/12 10:22:04;;;;;;;14.15;9.18;;;;;;;36.83;29.48;96676.38;5134652;27;20450;-68
2023/07/12 10:24:37;;;;;;;11.63;9.10;;;;;;;36.96;27.70;96669.97;5134945;27;20083;-68
2023/07/12 10:27:17;;;;;;;14.02;9.32;;;;;;;36.81;26.79;96663.00;5134242;27;20484;-68
2023/07/12 10:29:48;;;;;;;16.13;8.70;;;;;;;36.85;25.01;96655.19;5134792;27;20047;-68
2023/07/12 10:32:22;;;;;;;11.05;9.35;;;;;;;36.95;26.92;96658.22;5134533;27;20075;-69
2023/07/12 10:34:59;;;;;;;12.30;8.40;;;;;;;36.94;29.24;96656.56;5134656;27;20086;-68
2023/07/12 10:37:33;;;;;;;10.70;9.05;;;;;;;36.90;27.58;96652.63;5134752;27;20126;-68
2023/07/12 10:40:01;;;;;;;12.90;9.55;;;;;;;36.87;28.92;96645.72;5134366;27;20490;-68
2023/07/12 10:42:31;;;;;;;12.32;8.90;;;;;;;36.64;28.11;96643.63;5134301;27;20481;-68
2023/07/12 10:45:02;;;;;;;11.23;8.70;;;;;;;36.82;28.35;96636.56;5134334;27;20073;-68
2023/07/12 10:47:33;;;;;;;14.55;9.30;;;;;;;36.72;28.48;96634.38;5134579;27;20047;-68
2023/07/12 10:50:04;;;;;;;12.43;9.65;;;;;;;36.69;26.33;96627.44;5134126;27;20043;-68
2023/07/12 10:52:36;;;;;;;14.55;9.80;;;;;;;36.54;26.42;96625.06;5134243;27;20043;-68
2023/07/12 10:55:23;;;;;;;15.38;9.73;;;;;;;36.46;28.78;96623.47;5134184;27;20049;-68
2023/07/12 10:57:51;;;;;;;11.63;9.32;;;;;;;36.50;29.91;96627.41;5134110;27;20047;-68
2023/07/12 11:00:29;;;;;;;13.23;9.02;;;;;;;36.47;28.08;96624.31;5134121;27;20043;-68
2023/07/12 11:03:04;;;;;;;16.45;10.02;;;;;;;36.45;28.26;96638.13;5134137;28;20091;-68
2023/07/12 11:05:41;;;;;;;14.73;9.65;;;;;;;36.40;28.41;96633.34;5134030;27;20132;-68
2023/07/12 11:08:39;;;;;;;13.98;9.88;;;;;;;36.41;28.32;96629.56;5133857;28;20051;-68
2023/07/12 11:11:43;;;;;;;14.52;9.73;;;;;;;36.45;28.23;96629.97;5133938;28;20043;-68
2023/07/12 11:14:51;;;;;;;14.95;9.57;;;;;;;36.63;27.12;96637.31;5134064;27;20065;-68
2023/07/12 11:17:21;;;;;;;14.25;9.77;;;;;;;36.87;27.83;96632.09;5130425;27;20053;-68
2023/07/12 11:20:06;;;;;;;13.88;10.50;;;;;;;36.93;27.88;96630.41;5134017;28;20141;-68
2023/07/12 11:22:55;;;;;;;15.40;10.13;;;;;;;36.81;27.55;96624.84;5133884;27;20457;-69
2023/07/12 11:25:32;;;;;;;15.65;9.48;;;;;;;36.61;30.17;96620.41;5133934;27;20130;-68
2023/07/12 11:28:02;;;;;;;12.75;9.15;;;;;;;36.70;29.07;96615.53;5133933;27;20088;-68
2023/07/12 11:30:41;;;;;;;;;;;;;;;36.77;27.31;96612.72;5134221;28;20043;-68
2023/07/12 11:33:25;;;;;;;14.38;10.27;;;;;;;36.56;26.21;96614.78;5133880;27;19923;-68
2023/07/12 11:35:57;;;;;;;20.85;10.85;;;;;;;36.49;26.95;96614.00;5133790;27;20066;-68
2023/07/12 11:38:29;;;;;;;10.98;9.85;;;;;;;36.46;27.67;96618.03;5133964;27;20115;-68
2023/07/12 11:41:03;;;;;;;13.15;10.07;;;;;;;36.41;26.01;96617.84;5136699;27;20400;-68